CheckWX is a tool to help pilots better visualize weather data.  It is not intended as a substitute for an official pre-flight weather briefing.

20:31:26 UTC

KGCC TAF
Gillette-Campbell County Airport
Gillette, Wyoming, USA
KGCC 221720Z 2218/2318 16014G22KT P6SM SCT070 BKN200 FM222100 16014KT 5SM -SHRA OVC080 FM230100 19009KT P6SM OVC040

Mar-22@
18:00 UTC

Mar-22 @ 18:00 UTC

Mar-22@
21:00 UTC

Mar-22 @ 21:00 UTC

KGCC 221720Z 2218/2318 16014G22KT P6SM SCT070 BKN200
Wind
  • 160° at 14 KTS
  • {Gusting to 22 KTS
Cloud Levels
  • Scattered at 7,000' AGL
  • Broken at 20,000' AGL

Mar-22@
21:00 UTC

Mar-22 @ 21:00 UTC

Mar-23@
01:00 UTC

Mar-23 @ 01:00 UTC

FM222100 16014KT 5SM -SHRA OVC080

From

From Standard forecast or significant change

Wind
  • 160° at 14 KTS
Conditions
Light Rain
Cloud Levels
  • Overcast at 8,000' AGL

Mar-23@
01:00 UTC

Mar-23 @ 01:00 UTC

Mar-23@
18:00 UTC

Mar-23 @ 18:00 UTC

FM230100 19009KT P6SM OVC040

From

From Standard forecast or significant change

Wind
  • 190° at 9 KTS
Cloud Levels
  • Overcast at 4,000' AGL